Iran Virtual Airlines

A better place to fly together!



 METAR AND TAF INFORMATION
METAR FOR OIBV
ADDS - METARS form results

(1124 UTC 18 January 2021)
Data provider http://aviationweather.gov/metar/data/
 
METAR text: OIBV 181100Z 31012KT 4000 HZ NSC 24/18 Q1014
Conditions at: OIBV (LAVAN ISLAND , IR) observed 1100 UTC 18 January 2021
Temperature: 24.0°C (75°F)
Dewpoint: 18.0°C (64°F) [RH = 69%]
Pressure (altimeter): 29.94 inches Hg (1014.0 mb)
Winds: from the NW (310 degrees) at 14 MPH (12 knots; 6.2 m/s)
Visibility: 2.49 miles (4.01 km)
Ceiling: at least 12,000 feet AGL
Clouds: sky clear below 12,000 feet AGL
Weather: HZ  (haze)

 AIRPORT MAP

 RUNWAY INFORMATION
Runway 11 Runway length 6815 ft Runway width 148 ft
Runway elevation 73 ft Runway displaced threshold 0 ft Runway heading 111
Runway 29 Runway length 6815 ft Runway width 148 ft
Runway elevation 73 ft Runway displaced threshold 0 ft Runway heading 291

 AIRPORT FREQUENCIES
Type AFIS Name INFO Frequency 129 MHZ

 AIRPORT NEAR NAVIGATION AIDS
Type VOR-DME Name Lavan Island Frequency 116850 KHZ
Type NDB Name Lavan Island Frequency 310 KHZ